sensor_id;sensor_type;location;lat;lon;timestamp;P1;durP1;ratioP1;P2;durP2;ratioP2
80539;SDS011;69869;48.036;15.780;2023-05-10T00:01:21;2.40;;;2.20;;
80539;SDS011;69869;48.036;15.780;2023-05-10T00:03:46;5.72;;;2.25;;
80539;SDS011;69869;48.036;15.780;2023-05-10T00:06:12;3.55;;;2.15;;
80539;SDS011;69869;48.036;15.780;2023-05-10T00:08:38;3.13;;;2.10;;
80539;SDS011;69869;48.036;15.780;2023-05-10T00:11:03;5.90;;;2.10;;
80539;SDS011;69869;48.036;15.780;2023-05-10T00:13:29;3.92;;;2.15;;
80539;SDS011;69869;48.036;15.780;2023-05-10T00:15:56;2.15;;;1.95;;
80539;SDS011;69869;48.036;15.780;2023-05-10T00:18:22;3.55;;;2.00;;
80539;SDS011;69869;48.036;15.780;2023-05-10T00:20:47;2.03;;;1.92;;
80539;SDS011;69869;48.036;15.780;2023-05-10T00:23:14;3.67;;;2.03;;
80539;SDS011;69869;48.036;15.780;2023-05-10T00:25:39;1.90;;;1.80;;
80539;SDS011;69869;48.036;15.780;2023-05-10T00:28:05;2.00;;;1.80;;
80539;SDS011;69869;48.036;15.780;2023-05-10T00:30:31;3.72;;;2.13;;
80539;SDS011;69869;48.036;15.780;2023-05-10T00:32:56;2.40;;;2.03;;
80539;SDS011;69869;48.036;15.780;2023-05-10T00:35:22;2.47;;;1.95;;
80539;SDS011;69869;48.036;15.780;2023-05-10T00:37:48;2.00;;;1.80;;
80539;SDS011;69869;48.036;15.780;2023-05-10T00:40:13;4.03;;;2.13;;
80539;SDS011;69869;48.036;15.780;2023-05-10T00:42:39;6.00;;;2.30;;
80539;SDS011;69869;48.036;15.780;2023-05-10T00:45:05;2.85;;;2.10;;
80539;SDS011;69869;48.036;15.780;2023-05-10T00:47:31;6.93;;;2.17;;
80539;SDS011;69869;48.036;15.780;2023-05-10T00:49:58;4.68;;;2.08;;
80539;SDS011;69869;48.036;15.780;2023-05-10T00:52:25;5.20;;;2.00;;
80539;SDS011;69869;48.036;15.780;2023-05-10T00:54:52;5.13;;;2.13;;
80539;SDS011;69869;48.036;15.780;2023-05-10T00:57:18;2.38;;;2.08;;
80539;SDS011;69869;48.036;15.780;2023-05-10T00:59:44;3.97;;;1.92;;
80539;SDS011;69869;48.036;15.780;2023-05-10T01:02:10;3.13;;;2.15;;
80539;SDS011;69869;48.036;15.780;2023-05-10T01:04:36;5.68;;;2.10;;
80539;SDS011;69869;48.036;15.780;2023-05-10T01:07:02;6.60;;;2.00;;
80539;SDS011;69869;48.036;15.780;2023-05-10T01:09:28;2.47;;;2.10;;
80539;SDS011;69869;48.036;15.780;2023-05-10T01:11:54;3.58;;;2.10;;
80539;SDS011;69869;48.036;15.780;2023-05-10T01:14:21;7.05;;;2.20;;
80539;SDS011;69869;48.036;15.780;2023-05-10T01:16:47;3.20;;;1.92;;
80539;SDS011;69869;48.036;15.780;2023-05-10T01:19:17;3.25;;;2.10;;
80539;SDS011;69869;48.036;15.780;2023-05-10T01:33:17;9.00;;;2.05;;
80539;SDS011;69869;48.036;15.780;2023-05-10T01:35:49;13.60;;;2.28;;
80539;SDS011;69869;48.036;15.780;2023-05-10T01:38:38;4.47;;;2.10;;
80539;SDS011;69869;48.036;15.780;2023-05-10T01:41:34;5.18;;;2.10;;
80539;SDS011;69869;48.036;15.780;2023-05-10T01:44:24;6.53;;;2.53;;
80539;SDS011;69869;48.036;15.780;2023-05-10T01:49:37;9.35;;;2.53;;
80539;SDS011;69869;48.036;15.780;2023-05-10T01:52:12;4.45;;;2.00;;
80539;SDS011;69869;48.036;15.780;2023-05-10T01:54:42;8.13;;;2.17;;
80539;SDS011;69869;48.036;15.780;2023-05-10T01:57:13;5.95;;;1.90;;
80539;SDS011;69869;48.036;15.780;2023-05-10T01:59:42;2.58;;;1.80;;
80539;SDS011;69869;48.036;15.780;2023-05-10T02:02:10;3.42;;;2.20;;
80539;SDS011;69869;48.036;15.780;2023-05-10T02:04:38;2.00;;;1.90;;
80539;SDS011;69869;48.036;15.780;2023-05-10T02:07:06;2.58;;;1.92;;
80539;SDS011;69869;48.036;15.780;2023-05-10T02:09:33;2.53;;;2.10;;
80539;SDS011;69869;48.036;15.780;2023-05-10T02:12:01;2.50;;;2.13;;
80539;SDS011;69869;48.036;15.780;2023-05-10T02:14:29;2.45;;;2.03;;
80539;SDS011;69869;48.036;15.780;2023-05-10T02:17:01;3.22;;;2.13;;
80539;SDS011;69869;48.036;15.780;2023-05-10T02:19:29;2.67;;;2.00;;
80539;SDS011;69869;48.036;15.780;2023-05-10T02:21:56;2.67;;;2.20;;
80539;SDS011;69869;48.036;15.780;2023-05-10T02:24:23;2.53;;;2.20;;
80539;SDS011;69869;48.036;15.780;2023-05-10T02:26:50;2.45;;;2.00;;
80539;SDS011;69869;48.036;15.780;2023-05-10T02:29:18;2.10;;;1.90;;
80539;SDS011;69869;48.036;15.780;2023-05-10T02:31:45;2.20;;;2.00;;
80539;SDS011;69869;48.036;15.780;2023-05-10T02:34:11;4.95;;;1.90;;
80539;SDS011;69869;48.036;15.780;2023-05-10T02:36:38;2.40;;;2.00;;
80539;SDS011;69869;48.036;15.780;2023-05-10T02:39:05;4.13;;;2.30;;
80539;SDS011;69869;48.036;15.780;2023-05-10T02:41:35;1.90;;;1.80;;
80539;SDS011;69869;48.036;15.780;2023-05-10T02:44:01;2.22;;;2.00;;
80539;SDS011;69869;48.036;15.780;2023-05-10T02:46:28;2.10;;;2.00;;
80539;SDS011;69869;48.036;15.780;2023-05-10T02:48:54;2.95;;;1.92;;
80539;SDS011;69869;48.036;15.780;2023-05-10T02:51:20;2.03;;;1.90;;
80539;SDS011;69869;48.036;15.780;2023-05-10T02:53:49;2.20;;;2.00;;
80539;SDS011;69869;48.036;15.780;2023-05-10T02:56:24;6.72;;;2.10;;
80539;SDS011;69869;48.036;15.780;2023-05-10T02:58:55;4.28;;;1.95;;
80539;SDS011;69869;48.036;15.780;2023-05-10T03:01:21;3.58;;;1.98;;
80539;SDS011;69869;48.036;15.780;2023-05-10T03:03:47;2.83;;;2.00;;
80539;SDS011;69869;48.036;15.780;2023-05-10T03:06:12;2.25;;;2.00;;
80539;SDS011;69869;48.036;15.780;2023-05-10T03:08:38;5.30;;;2.05;;
80539;SDS011;69869;48.036;15.780;2023-05-10T03:11:12;2.13;;;1.70;;
80539;SDS011;69869;48.036;15.780;2023-05-10T03:13:59;6.22;;;2.10;;
80539;SDS011;69869;48.036;15.780;2023-05-10T03:16:45;6.65;;;1.92;;
80539;SDS011;69869;48.036;15.780;2023-05-10T03:19:16;6.28;;;2.40;;
80539;SDS011;69869;48.036;15.780;2023-05-10T03:21:50;8.95;;;2.20;;
80539;SDS011;69869;48.036;15.780;2023-05-10T03:24:19;10.57;;;2.25;;
80539;SDS011;69869;48.036;15.780;2023-05-10T03:26:48;7.13;;;2.30;;
80539;SDS011;69869;48.036;15.780;2023-05-10T03:29:15;7.18;;;2.03;;
80539;SDS011;69869;48.036;15.780;2023-05-10T03:31:41;10.75;;;2.22;;
80539;SDS011;69869;48.036;15.780;2023-05-10T03:34:07;5.10;;;2.30;;
80539;SDS011;69869;48.036;15.780;2023-05-10T03:36:33;7.25;;;2.28;;
80539;SDS011;69869;48.036;15.780;2023-05-10T03:38:58;6.43;;;2.00;;
80539;SDS011;69869;48.036;15.780;2023-05-10T03:41:24;3.22;;;2.10;;
80539;SDS011;69869;48.036;15.780;2023-05-10T03:43:50;4.50;;;2.13;;
80539;SDS011;69869;48.036;15.780;2023-05-10T03:46:16;3.22;;;2.03;;
80539;SDS011;69869;48.036;15.780;2023-05-10T03:48:42;4.80;;;2.08;;
80539;SDS011;69869;48.036;15.780;2023-05-10T03:51:07;5.05;;;2.03;;
80539;SDS011;69869;48.036;15.780;2023-05-10T03:53:33;7.63;;;2.17;;
80539;SDS011;69869;48.036;15.780;2023-05-10T03:55:59;8.50;;;2.20;;
80539;SDS011;69869;48.036;15.780;2023-05-10T03:58:24;9.52;;;2.28;;
80539;SDS011;69869;48.036;15.780;2023-05-10T04:00:51;4.43;;;2.05;;
80539;SDS011;69869;48.036;15.780;2023-05-10T04:03:17;6.55;;;2.15;;
80539;SDS011;69869;48.036;15.780;2023-05-10T04:05:43;5.72;;;2.30;;
80539;SDS011;69869;48.036;15.780;2023-05-10T04:08:08;9.25;;;4.97;;
80539;SDS011;69869;48.036;15.780;2023-05-10T04:10:34;9.15;;;3.70;;
80539;SDS011;69869;48.036;15.780;2023-05-10T04:13:00;3.90;;;3.00;;
80539;SDS011;69869;48.036;15.780;2023-05-10T04:15:25;7.30;;;3.33;;
80539;SDS011;69869;48.036;15.780;2023-05-10T04:17:51;9.13;;;2.80;;
80539;SDS011;69869;48.036;15.780;2023-05-10T04:20:17;3.78;;;2.60;;
80539;SDS011;69869;48.036;15.780;2023-05-10T04:22:42;6.47;;;2.67;;
80539;SDS011;69869;48.036;15.780;2023-05-10T04:25:08;4.07;;;2.50;;
80539;SDS011;69869;48.036;15.780;2023-05-10T04:27:34;8.38;;;2.40;;
80539;SDS011;69869;48.036;15.780;2023-05-10T04:30:00;12.00;;;2.80;;
80539;SDS011;69869;48.036;15.780;2023-05-10T04:32:26;7.20;;;2.50;;
80539;SDS011;69869;48.036;15.780;2023-05-10T04:34:51;6.93;;;2.13;;
80539;SDS011;69869;48.036;15.780;2023-05-10T04:37:18;10.48;;;2.63;;
80539;SDS011;69869;48.036;15.780;2023-05-10T04:39:44;7.82;;;2.20;;
80539;SDS011;69869;48.036;15.780;2023-05-10T04:42:09;25.13;;;2.80;;
80539;SDS011;69869;48.036;15.780;2023-05-10T04:44:36;49.65;;;3.38;;
80539;SDS011;69869;48.036;15.780;2023-05-10T04:47:02;30.75;;;2.80;;
80539;SDS011;69869;48.036;15.780;2023-05-10T04:49:28;28.15;;;3.03;;
80539;SDS011;69869;48.036;15.780;2023-05-10T04:51:54;16.35;;;2.78;;
80539;SDS011;69869;48.036;15.780;2023-05-10T04:54:20;17.55;;;2.80;;
80539;SDS011;69869;48.036;15.780;2023-05-10T04:56:46;22.00;;;2.78;;
80539;SDS011;69869;48.036;15.780;2023-05-10T04:59:12;17.58;;;2.58;;
80539;SDS011;69869;48.036;15.780;2023-05-10T05:01:37;16.42;;;2.65;;
80539;SDS011;69869;48.036;15.780;2023-05-10T05:04:04;18.27;;;2.60;;
80539;SDS011;69869;48.036;15.780;2023-05-10T05:06:29;17.10;;;2.40;;
80539;SDS011;69869;48.036;15.780;2023-05-10T05:08:55;13.25;;;2.22;;
80539;SDS011;69869;48.036;15.780;2023-05-10T05:11:21;8.63;;;2.38;;
80539;SDS011;69869;48.036;15.780;2023-05-10T05:13:47;14.13;;;2.45;;
80539;SDS011;69869;48.036;15.780;2023-05-10T05:16:12;16.20;;;2.70;;
80539;SDS011;69869;48.036;15.780;2023-05-10T05:18:38;14.60;;;3.00;;
80539;SDS011;69869;48.036;15.780;2023-05-10T05:21:13;11.13;;;2.40;;
80539;SDS011;69869;48.036;15.780;2023-05-10T05:23:42;11.75;;;2.50;;
80539;SDS011;69869;48.036;15.780;2023-05-10T05:26:08;9.57;;;2.28;;
80539;SDS011;69869;48.036;15.780;2023-05-10T05:28:33;9.35;;;2.20;;
80539;SDS011;69869;48.036;15.780;2023-05-10T05:31:02;11.35;;;2.20;;
80539;SDS011;69869;48.036;15.780;2023-05-10T05:33:28;9.75;;;2.20;;
80539;SDS011;69869;48.036;15.780;2023-05-10T05:35:54;12.32;;;2.50;;
80539;SDS011;69869;48.036;15.780;2023-05-10T05:38:19;5.03;;;2.00;;
80539;SDS011;69869;48.036;15.780;2023-05-10T05:40:45;12.88;;;2.35;;
80539;SDS011;69869;48.036;15.780;2023-05-10T05:43:10;5.85;;;2.00;;
80539;SDS011;69869;48.036;15.780;2023-05-10T05:45:36;11.65;;;2.10;;
80539;SDS011;69869;48.036;15.780;2023-05-10T05:48:02;7.78;;;2.40;;
80539;SDS011;69869;48.036;15.780;2023-05-10T05:50:28;7.55;;;2.00;;
80539;SDS011;69869;48.036;15.780;2023-05-10T05:52:53;9.90;;;1.92;;
80539;SDS011;69869;48.036;15.780;2023-05-10T05:55:19;6.88;;;1.90;;
80539;SDS011;69869;48.036;15.780;2023-05-10T05:57:45;7.22;;;2.10;;
80539;SDS011;69869;48.036;15.780;2023-05-10T06:00:11;6.43;;;1.92;;
80539;SDS011;69869;48.036;15.780;2023-05-10T06:02:38;5.97;;;2.10;;
80539;SDS011;69869;48.036;15.780;2023-05-10T06:05:03;6.45;;;2.13;;
80539;SDS011;69869;48.036;15.780;2023-05-10T06:07:29;5.03;;;1.77;;
80539;SDS011;69869;48.036;15.780;2023-05-10T06:09:55;3.75;;;1.90;;
80539;SDS011;69869;48.036;15.780;2023-05-10T06:12:20;5.22;;;2.00;;
80539;SDS011;69869;48.036;15.780;2023-05-10T06:14:46;8.23;;;2.03;;
80539;SDS011;69869;48.036;15.780;2023-05-10T06:17:12;6.25;;;1.90;;
80539;SDS011;69869;48.036;15.780;2023-05-10T06:19:37;5.93;;;1.88;;
80539;SDS011;69869;48.036;15.780;2023-05-10T06:22:03;4.03;;;1.63;;
80539;SDS011;69869;48.036;15.780;2023-05-10T06:24:29;3.67;;;1.65;;
80539;SDS011;69869;48.036;15.780;2023-05-10T06:26:54;3.83;;;1.90;;
80539;SDS011;69869;48.036;15.780;2023-05-10T06:29:20;4.75;;;1.70;;
80539;SDS011;69869;48.036;15.780;2023-05-10T06:31:46;4.63;;;1.60;;
80539;SDS011;69869;48.036;15.780;2023-05-10T06:34:11;3.53;;;1.63;;
80539;SDS011;69869;48.036;15.780;2023-05-10T06:36:38;5.88;;;1.90;;
80539;SDS011;69869;48.036;15.780;2023-05-10T06:39:04;3.15;;;1.60;;
80539;SDS011;69869;48.036;15.780;2023-05-10T06:41:30;3.72;;;1.80;;
80539;SDS011;69869;48.036;15.780;2023-05-10T06:43:56;2.35;;;1.70;;
80539;SDS011;69869;48.036;15.780;2023-05-10T06:46:21;2.92;;;1.58;;
80539;SDS011;69869;48.036;15.780;2023-05-10T06:48:47;2.20;;;1.73;;
80539;SDS011;69869;48.036;15.780;2023-05-10T06:51:12;1.63;;;1.52;;
80539;SDS011;69869;48.036;15.780;2023-05-10T06:53:38;3.17;;;1.70;;
80539;SDS011;69869;48.036;15.780;2023-05-10T06:56:04;3.10;;;2.03;;
80539;SDS011;69869;48.036;15.780;2023-05-10T06:58:30;2.75;;;1.60;;
80539;SDS011;69869;48.036;15.780;2023-05-10T07:01:01;3.88;;;1.70;;
80539;SDS011;69869;48.036;15.780;2023-05-10T07:03:28;2.95;;;1.70;;
80539;SDS011;69869;48.036;15.780;2023-05-10T07:05:53;3.40;;;1.58;;
80539;SDS011;69869;48.036;15.780;2023-05-10T07:08:24;2.30;;;1.60;;
80539;SDS011;69869;48.036;15.780;2023-05-10T07:10:50;2.60;;;1.60;;
80539;SDS011;69869;48.036;15.780;2023-05-10T07:13:15;3.90;;;1.50;;
80539;SDS011;69869;48.036;15.780;2023-05-10T07:15:41;2.03;;;1.40;;
80539;SDS011;69869;48.036;15.780;2023-05-10T07:18:07;3.83;;;1.73;;
80539;SDS011;69869;48.036;15.780;2023-05-10T07:20:32;1.45;;;1.30;;
80539;SDS011;69869;48.036;15.780;2023-05-10T07:22:58;1.80;;;1.50;;
80539;SDS011;69869;48.036;15.780;2023-05-10T07:25:24;2.28;;;1.65;;
80539;SDS011;69869;48.036;15.780;2023-05-10T07:27:49;2.22;;;1.42;;
80539;SDS011;69869;48.036;15.780;2023-05-10T07:30:15;2.30;;;1.60;;
80539;SDS011;69869;48.036;15.780;2023-05-10T07:32:41;2.30;;;1.52;;
80539;SDS011;69869;48.036;15.780;2023-05-10T07:35:07;2.17;;;1.52;;
80539;SDS011;69869;48.036;15.780;2023-05-10T07:37:33;2.53;;;1.55;;
80539;SDS011;69869;48.036;15.780;2023-05-10T07:39:59;3.80;;;1.30;;
80539;SDS011;69869;48.036;15.780;2023-05-10T07:42:24;2.65;;;1.50;;
80539;SDS011;69869;48.036;15.780;2023-05-10T07:44:50;3.92;;;1.70;;
80539;SDS011;69869;48.036;15.780;2023-05-10T07:47:16;3.25;;;1.65;;
80539;SDS011;69869;48.036;15.780;2023-05-10T07:49:41;1.83;;;1.30;;
80539;SDS011;69869;48.036;15.780;2023-05-10T07:52:08;3.08;;;1.50;;
80539;SDS011;69869;48.036;15.780;2023-05-10T07:54:34;2.25;;;1.42;;
80539;SDS011;69869;48.036;15.780;2023-05-10T07:57:00;1.88;;;1.52;;
80539;SDS011;69869;48.036;15.780;2023-05-10T07:59:25;1.58;;;1.48;;
80539;SDS011;69869;48.036;15.780;2023-05-10T08:01:51;2.70;;;1.40;;
80539;SDS011;69869;48.036;15.780;2023-05-10T08:04:16;2.08;;;1.50;;
80539;SDS011;69869;48.036;15.780;2023-05-10T08:06:42;2.33;;;1.40;;
80539;SDS011;69869;48.036;15.780;2023-05-10T08:09:08;1.48;;;1.38;;
80539;SDS011;69869;48.036;15.780;2023-05-10T08:11:34;3.80;;;1.40;;
80539;SDS011;69869;48.036;15.780;2023-05-10T08:14:00;1.52;;;1.42;;
80539;SDS011;69869;48.036;15.780;2023-05-10T08:16:26;2.75;;;1.33;;
80539;SDS011;69869;48.036;15.780;2023-05-10T08:18:51;1.50;;;1.40;;
80539;SDS011;69869;48.036;15.780;2023-05-10T08:21:17;1.85;;;1.30;;
80539;SDS011;69869;48.036;15.780;2023-05-10T08:23:43;1.65;;;1.20;;
80539;SDS011;69869;48.036;15.780;2023-05-10T08:26:08;1.40;;;1.27;;
80539;SDS011;69869;48.036;15.780;2023-05-10T08:28:34;2.42;;;1.30;;
80539;SDS011;69869;48.036;15.780;2023-05-10T08:31:00;1.65;;;1.40;;
80539;SDS011;69869;48.036;15.780;2023-05-10T08:33:25;2.10;;;1.38;;
80539;SDS011;69869;48.036;15.780;2023-05-10T08:35:51;2.35;;;1.50;;
80539;SDS011;69869;48.036;15.780;2023-05-10T08:38:17;1.77;;;1.30;;
80539;SDS011;69869;48.036;15.780;2023-05-10T08:40:44;1.73;;;1.40;;
80539;SDS011;69869;48.036;15.780;2023-05-10T08:43:11;1.40;;;1.30;;
80539;SDS011;69869;48.036;15.780;2023-05-10T08:45:41;1.58;;;1.10;;
80539;SDS011;69869;48.036;15.780;2023-05-10T08:48:08;1.77;;;1.30;;
80539;SDS011;69869;48.036;15.780;2023-05-10T08:50:44;1.50;;;1.20;;
80539;SDS011;69869;48.036;15.780;2023-05-10T08:53:12;1.42;;;1.30;;
80539;SDS011;69869;48.036;15.780;2023-05-10T08:55:40;1.40;;;1.30;;
80539;SDS011;69869;48.036;15.780;2023-05-10T08:58:07;2.38;;;1.50;;
80539;SDS011;69869;48.036;15.780;2023-05-10T09:00:33;1.42;;;1.30;;
80539;SDS011;69869;48.036;15.780;2023-05-10T09:03:00;1.30;;;1.10;;
80539;SDS011;69869;48.036;15.780;2023-05-10T09:05:26;1.60;;;1.30;;
80539;SDS011;69869;48.036;15.780;2023-05-10T09:07:52;1.10;;;1.10;;
80539;SDS011;69869;48.036;15.780;2023-05-10T09:10:18;1.33;;;1.23;;
80539;SDS011;69869;48.036;15.780;2023-05-10T09:12:44;1.98;;;1.42;;
80539;SDS011;69869;48.036;15.780;2023-05-10T09:15:11;1.40;;;1.30;;
80539;SDS011;69869;48.036;15.780;2023-05-10T09:17:39;1.30;;;1.20;;
80539;SDS011;69869;48.036;15.780;2023-05-10T09:20:06;1.67;;;1.30;;
80539;SDS011;69869;48.036;15.780;2023-05-10T09:22:32;1.33;;;1.20;;
80539;SDS011;69869;48.036;15.780;2023-05-10T09:25:08;1.58;;;1.40;;
80539;SDS011;69869;48.036;15.780;2023-05-10T09:27:39;1.50;;;1.10;;
80539;SDS011;69869;48.036;15.780;2023-05-10T09:30:06;1.38;;;1.27;;
80539;SDS011;69869;48.036;15.780;2023-05-10T09:32:39;1.42;;;1.20;;
80539;SDS011;69869;48.036;15.780;2023-05-10T09:35:09;1.60;;;1.35;;
80539;SDS011;69869;48.036;15.780;2023-05-10T09:37:38;3.08;;;1.25;;
80539;SDS011;69869;48.036;15.780;2023-05-10T09:40:06;1.17;;;1.10;;
80539;SDS011;69869;48.036;15.780;2023-05-10T09:42:36;1.45;;;1.23;;
80539;SDS011;69869;48.036;15.780;2023-05-10T09:45:02;1.30;;;1.20;;
80539;SDS011;69869;48.036;15.780;2023-05-10T09:47:31;1.20;;;1.10;;
80539;SDS011;69869;48.036;15.780;2023-05-10T09:49:57;1.00;;;1.00;;
80539;SDS011;69869;48.036;15.780;2023-05-10T09:52:28;2.25;;;1.10;;
80539;SDS011;69869;48.036;15.780;2023-05-10T09:54:54;1.20;;;1.10;;
80539;SDS011;69869;48.036;15.780;2023-05-10T09:57:20;1.23;;;1.13;;
80539;SDS011;69869;48.036;15.780;2023-05-10T09:59:47;1.00;;;1.00;;
80539;SDS011;69869;48.036;15.780;2023-05-10T10:02:13;1.00;;;1.00;;
80539;SDS011;69869;48.036;15.780;2023-05-10T10:04:39;1.23;;;1.13;;
80539;SDS011;69869;48.036;15.780;2023-05-10T10:07:06;1.00;;;1.00;;
80539;SDS011;69869;48.036;15.780;2023-05-10T10:09:32;1.02;;;1.00;;
80539;SDS011;69869;48.036;15.780;2023-05-10T10:12:02;1.08;;;1.05;;
80539;SDS011;69869;48.036;15.780;2023-05-10T10:14:28;1.17;;;1.10;;
80539;SDS011;69869;48.036;15.780;2023-05-10T10:16:55;1.10;;;1.02;;
80539;SDS011;69869;48.036;15.780;2023-05-10T10:19:21;1.05;;;1.05;;
80539;SDS011;69869;48.036;15.780;2023-05-10T10:21:50;1.20;;;1.10;;
80539;SDS011;69869;48.036;15.780;2023-05-10T10:24:16;1.50;;;1.40;;
80539;SDS011;69869;48.036;15.780;2023-05-10T10:26:41;1.20;;;1.10;;
80539;SDS011;69869;48.036;15.780;2023-05-10T10:32:06;1.15;;;1.00;;
80539;SDS011;69869;48.036;15.780;2023-05-10T10:34:42;1.20;;;1.10;;
80539;SDS011;69869;48.036;15.780;2023-05-10T10:37:08;1.30;;;1.20;;
80539;SDS011;69869;48.036;15.780;2023-05-10T10:39:33;1.10;;;1.10;;
80539;SDS011;69869;48.036;15.780;2023-05-10T10:42:01;1.23;;;1.05;;
80539;SDS011;69869;48.036;15.780;2023-05-10T10:49:24;1.23;;;1.10;;
80539;SDS011;69869;48.036;15.780;2023-05-10T10:54:38;1.30;;;1.00;;
80539;SDS011;69869;48.036;15.780;2023-05-10T10:57:13;1.27;;;1.17;;
80539;SDS011;69869;48.036;15.780;2023-05-10T11:00:17;2.33;;;1.17;;
80539;SDS011;69869;48.036;15.780;2023-05-10T11:02:49;1.63;;;1.23;;
80539;SDS011;69869;48.036;15.780;2023-05-10T11:08:45;2.15;;;1.20;;
80539;SDS011;69869;48.036;15.780;2023-05-10T11:15:58;3.80;;;1.20;;
80539;SDS011;69869;48.036;15.780;2023-05-10T11:18:36;1.08;;;0.98;;
80539;SDS011;69869;48.036;15.780;2023-05-10T11:21:02;1.30;;;1.10;;
80539;SDS011;69869;48.036;15.780;2023-05-10T11:23:47;2.00;;;1.10;;
80539;SDS011;69869;48.036;15.780;2023-05-10T11:26:13;2.10;;;1.50;;
80539;SDS011;69869;48.036;15.780;2023-05-10T11:28:45;1.48;;;1.35;;
80539;SDS011;69869;48.036;15.780;2023-05-10T11:31:15;1.92;;;1.25;;
80539;SDS011;69869;48.036;15.780;2023-05-10T11:33:45;2.30;;;1.30;;
80539;SDS011;69869;48.036;15.780;2023-05-10T11:38:40;1.50;;;1.20;;
80539;SDS011;69869;48.036;15.780;2023-05-10T11:41:07;2.30;;;1.10;;
80539;SDS011;69869;48.036;15.780;2023-05-10T11:43:34;1.40;;;1.30;;
80539;SDS011;69869;48.036;15.780;2023-05-10T11:46:03;1.00;;;1.00;;
80539;SDS011;69869;48.036;15.780;2023-05-10T11:48:32;1.38;;;1.27;;
80539;SDS011;69869;48.036;15.780;2023-05-10T11:50:58;1.98;;;1.20;;
80539;SDS011;69869;48.036;15.780;2023-05-10T11:53:27;1.33;;;1.20;;
80539;SDS011;69869;48.036;15.780;2023-05-10T11:55:53;2.70;;;1.20;;
80539;SDS011;69869;48.036;15.780;2023-05-10T11:58:18;1.40;;;1.30;;
80539;SDS011;69869;48.036;15.780;2023-05-10T12:00:46;1.48;;;1.20;;
80539;SDS011;69869;48.036;15.780;2023-05-10T12:03:13;1.35;;;1.10;;
80539;SDS011;69869;48.036;15.780;2023-05-10T12:05:38;1.17;;;1.08;;
80539;SDS011;69869;48.036;15.780;2023-05-10T12:08:19;1.17;;;1.17;;
80539;SDS011;69869;48.036;15.780;2023-05-10T12:10:46;1.10;;;1.00;;
80539;SDS011;69869;48.036;15.780;2023-05-10T12:13:12;1.85;;;1.30;;
80539;SDS011;69869;48.036;15.780;2023-05-10T12:15:39;2.20;;;1.30;;
80539;SDS011;69869;48.036;15.780;2023-05-10T12:18:04;1.83;;;1.25;;
80539;SDS011;69869;48.036;15.780;2023-05-10T12:20:30;1.10;;;1.10;;
80539;SDS011;69869;48.036;15.780;2023-05-10T12:22:57;1.77;;;1.20;;
80539;SDS011;69869;48.036;15.780;2023-05-10T12:25:24;1.33;;;1.23;;
80539;SDS011;69869;48.036;15.780;2023-05-10T12:27:56;1.40;;;1.30;;
80539;SDS011;69869;48.036;15.780;2023-05-10T12:30:26;1.98;;;1.20;;
80539;SDS011;69869;48.036;15.780;2023-05-10T12:32:53;2.03;;;1.23;;
80539;SDS011;69869;48.036;15.780;2023-05-10T12:35:24;1.27;;;1.23;;
80539;SDS011;69869;48.036;15.780;2023-05-10T12:37:50;1.50;;;1.40;;
80539;SDS011;69869;48.036;15.780;2023-05-10T12:40:16;1.10;;;1.10;;
80539;SDS011;69869;48.036;15.780;2023-05-10T12:42:42;2.08;;;1.30;;
80539;SDS011;69869;48.036;15.780;2023-05-10T12:45:09;1.30;;;1.20;;
80539;SDS011;69869;48.036;15.780;2023-05-10T12:47:37;1.83;;;1.30;;
80539;SDS011;69869;48.036;15.780;2023-05-10T12:50:03;1.25;;;1.15;;
80539;SDS011;69869;48.036;15.780;2023-05-10T12:52:30;1.30;;;1.20;;
80539;SDS011;69869;48.036;15.780;2023-05-10T12:54:57;1.85;;;1.10;;
80539;SDS011;69869;48.036;15.780;2023-05-10T12:57:23;1.77;;;1.10;;
80539;SDS011;69869;48.036;15.780;2023-05-10T12:59:49;1.48;;;1.20;;
80539;SDS011;69869;48.036;15.780;2023-05-10T13:02:15;1.38;;;1.27;;
80539;SDS011;69869;48.036;15.780;2023-05-10T13:04:43;1.35;;;1.20;;
80539;SDS011;69869;48.036;15.780;2023-05-10T13:07:09;2.40;;;1.30;;
80539;SDS011;69869;48.036;15.780;2023-05-10T13:09:35;1.40;;;1.30;;
80539;SDS011;69869;48.036;15.780;2023-05-10T13:12:01;1.58;;;1.17;;
80539;SDS011;69869;48.036;15.780;2023-05-10T13:14:27;1.85;;;1.30;;
80539;SDS011;69869;48.036;15.780;2023-05-10T13:16:54;1.38;;;1.20;;
80539;SDS011;69869;48.036;15.780;2023-05-10T13:19:20;1.10;;;1.08;;
80539;SDS011;69869;48.036;15.780;2023-05-10T13:21:46;1.23;;;1.17;;
80539;SDS011;69869;48.036;15.780;2023-05-10T13:24:12;2.22;;;1.27;;
80539;SDS011;69869;48.036;15.780;2023-05-10T13:26:41;2.67;;;1.30;;
80539;SDS011;69869;48.036;15.780;2023-05-10T13:29:07;6.65;;;1.40;;
80539;SDS011;69869;48.036;15.780;2023-05-10T13:31:33;12.30;;;1.75;;
80539;SDS011;69869;48.036;15.780;2023-05-10T13:33:59;18.52;;;1.83;;
80539;SDS011;69869;48.036;15.780;2023-05-10T13:36:25;14.98;;;1.90;;
80539;SDS011;69869;48.036;15.780;2023-05-10T13:38:51;15.70;;;1.70;;
80539;SDS011;69869;48.036;15.780;2023-05-10T13:41:17;8.35;;;1.70;;
80539;SDS011;69869;48.036;15.780;2023-05-10T13:43:43;9.70;;;1.88;;
80539;SDS011;69869;48.036;15.780;2023-05-10T13:46:08;8.70;;;1.80;;
80539;SDS011;69869;48.036;15.780;2023-05-10T13:48:34;6.75;;;1.58;;
80539;SDS011;69869;48.036;15.780;2023-05-10T13:51:01;8.45;;;1.75;;
80539;SDS011;69869;48.036;15.780;2023-05-10T13:53:27;6.90;;;1.60;;
80539;SDS011;69869;48.036;15.780;2023-05-10T13:55:53;3.20;;;1.42;;
80539;SDS011;69869;48.036;15.780;2023-05-10T13:58:18;5.28;;;1.90;;
80539;SDS011;69869;48.036;15.780;2023-05-10T14:00:44;5.60;;;1.50;;
80539;SDS011;69869;48.036;15.780;2023-05-10T14:03:10;5.10;;;1.80;;
80539;SDS011;69869;48.036;15.780;2023-05-10T14:05:35;8.15;;;1.50;;
80539;SDS011;69869;48.036;15.780;2023-05-10T14:08:01;3.42;;;1.70;;
80539;SDS011;69869;48.036;15.780;2023-05-10T14:10:27;3.20;;;1.73;;
80539;SDS011;69869;48.036;15.780;2023-05-10T14:12:53;2.70;;;1.50;;
80539;SDS011;69869;48.036;15.780;2023-05-10T14:15:19;3.05;;;1.60;;
80539;SDS011;69869;48.036;15.780;2023-05-10T14:17:44;6.47;;;1.75;;
80539;SDS011;69869;48.036;15.780;2023-05-10T14:20:10;3.67;;;1.55;;
80539;SDS011;69869;48.036;15.780;2023-05-10T14:22:36;5.03;;;1.90;;
80539;SDS011;69869;48.036;15.780;2023-05-10T14:25:01;4.75;;;1.48;;
80539;SDS011;69869;48.036;15.780;2023-05-10T14:27:27;4.05;;;1.58;;
80539;SDS011;69869;48.036;15.780;2023-05-10T14:29:53;4.10;;;1.60;;
80539;SDS011;69869;48.036;15.780;2023-05-10T14:32:19;3.83;;;1.50;;
80539;SDS011;69869;48.036;15.780;2023-05-10T14:34:44;2.05;;;1.40;;
80539;SDS011;69869;48.036;15.780;2023-05-10T14:37:10;2.08;;;1.50;;
80539;SDS011;69869;48.036;15.780;2023-05-10T14:39:36;4.80;;;1.67;;
80539;SDS011;69869;48.036;15.780;2023-05-10T14:42:02;2.85;;;1.58;;
80539;SDS011;69869;48.036;15.780;2023-05-10T14:44:28;2.60;;;1.60;;
80539;SDS011;69869;48.036;15.780;2023-05-10T14:46:54;2.65;;;1.50;;
80539;SDS011;69869;48.036;15.780;2023-05-10T14:49:21;3.10;;;1.50;;
80539;SDS011;69869;48.036;15.780;2023-05-10T14:51:47;2.40;;;1.45;;
80539;SDS011;69869;48.036;15.780;2023-05-10T14:54:13;1.98;;;1.40;;
80539;SDS011;69869;48.036;15.780;2023-05-10T14:56:39;3.53;;;1.60;;
80539;SDS011;69869;48.036;15.780;2023-05-10T14:59:06;3.13;;;1.60;;
80539;SDS011;69869;48.036;15.780;2023-05-10T15:01:32;2.65;;;1.50;;
80539;SDS011;69869;48.036;15.780;2023-05-10T15:03:59;2.15;;;1.50;;
80539;SDS011;69869;48.036;15.780;2023-05-10T15:06:34;2.72;;;1.48;;
80539;SDS011;69869;48.036;15.780;2023-05-10T15:09:01;2.38;;;1.60;;